Nearby METAR Reports

 

KDWH - Houston/Dw Hooks, Texas, USA
Distance from station: SW 9mi, 15km
Updated: Sun, 22-Oct-2017 4:53am CDT
Mist, Few clouds
Mist, Few clouds
 Wind from calm
Wind: Calm
Temperature: 72°F , 22°C
Dew Point: 72°F , 22°C
Humidity: 100%
Barometer: 29.97 inHg , 1014.9 hPa
Summary: Mist
Clouds: Few Clouds
Visibility: 3/4 mile , 5 km
Cloud details: Few Clouds 7000 ft
2017/10/22 09:53 KDWH 220953Z AUTO 00000KT 3/4SM BR FEW070 22/22 A2997 RMK AO2 SLP147 T02220222
KIAH - Houston/Intnl, Texas, USA
Distance from station: SSE 12mi, 20km
Updated: Sun, 22-Oct-2017 4:53am CDT
Shallow fog, Mist, Partly cloudy
Shallow fog, Mist, Partly cloudy
 Wind from calm
Wind: Calm
Temperature: 72°F , 22°C
Dew Point: 72°F , 22°C
Humidity: 100%
Barometer: 29.97 inHg , 1014.9 hPa
Summary: Shallow fog, Mist
Clouds: Partly cloudy
Visibility: 5 miles , 8 km
Cloud details: Partly cloudy 1800 ft
2017/10/22 09:53 KIAH 220953Z 00000KT 5SM MIFG BR SCT018 22/22 A2997 RMK AO2 SLP148 T02220222
 
KCXO - Conroe, Texas, USA
Distance from station: N 13mi, 21km
Updated: Sun, 22-Oct-2017 4:53am CDT
Fog, Overcast
Fog, Overcast
 Wind from calm
Wind: Calm
Temperature: 73°F , 23°C
Dew Point: 73°F , 23°C
Humidity: 100%
Barometer: 29.98 inHg , 1015.2 hPa
Summary: Fog
Clouds: Overcast
Visibility: 1/2 mile , 2 km
Cloud details: Overcast 200 ft
2017/10/22 09:53 KCXO 220953Z AUTO 00000KT 1/2SM FG VV002 23/23 A2998 RMK AO2 SLP147 T02280228
KHOU - Houston/Hobby, Texas, USA
Distance from station: SSE 38mi, 61km
Updated: Sun, 22-Oct-2017 4:53am CDT
Patches of fog, Few clouds
Patches of fog, Few clouds
 Wind from calm
Wind: Calm
Temperature: 75°F , 24°C
Dew Point: 72°F , 22°C
Humidity: 89%
Barometer: 29.97 inHg , 1014.9 hPa
Summary: Patches of Fog
Clouds: Few Clouds
Visibility: 9 miles , 14 km
Cloud details: Few Clouds 1800 ft
Few Clouds 25000 ft
2017/10/22 09:53 KHOU 220953Z 00000KT 9SM BCFG FEW018 FEW250 24/22 A2997 RMK AO2 SLP152 T02390222